Time;durP1;ratioP1;P1;durP2;ratioP2;P2;SDS_P1;SDS_P2;PMS_P1;PMS_P2;Temp;Humidity;BMP_temperature;BMP_pressure;BME280_temperature;BME280_humidity;BME280_pressure;Samples;Min_cycle;Max_cycle;Signal;HPM_P1;HPM_P2
2021/07/16 00:01:28;;;;;;;24.02;11.63;;;17.50;83.30;;;;;;5070399;28;20395;-74
2021/07/16 00:03:54;;;;;;;22.52;11.55;;;17.50;83.30;;;;;;5076347;28;20028;-76
2021/07/16 00:06:19;;;;;;;22.08;11.40;;;17.50;83.70;;;;;;5090452;28;20050;-74
2021/07/16 00:08:45;;;;;;;19.23;11.65;;;17.50;84.10;;;;;;5092079;28;20126;-77
2021/07/16 00:11:11;;;;;;;27.05;13.48;;;17.50;84.50;;;;;;5091380;28;20042;-75
2021/07/16 00:13:37;;;;;;;28.63;13.85;;;17.50;84.80;;;;;;5091528;28;20115;-75
2021/07/16 00:16:05;;;;;;;24.92;12.65;;;17.40;85.20;;;;;;5081562;28;20036;-74
2021/07/16 00:18:31;;;;;;;29.02;13.35;;;17.40;85.30;;;;;;5089985;28;20130;-76
2021/07/16 00:20:57;;;;;;;26.45;13.60;;;17.40;85.70;;;;;;5091619;28;20501;-73
2021/07/16 00:23:23;;;;;;;25.35;12.73;;;17.40;85.90;;;;;;5082988;28;20037;-74
2021/07/16 00:25:49;;;;;;;25.10;13.05;;;17.30;86.10;;;;;;5069492;28;20080;-75
2021/07/16 00:28:15;;;;;;;27.65;14.35;;;17.20;86.30;;;;;;5069515;28;20067;-74
2021/07/16 00:30:41;;;;;;;24.88;13.15;;;17.20;86.50;;;;;;5076297;28;20032;-74
2021/07/16 00:33:06;;;;;;;28.63;13.63;;;17.20;86.80;;;;;;5090903;28;20044;-75
2021/07/16 00:35:32;;;;;;;26.17;14.25;;;17.20;87.00;;;;;;5078348;28;20028;-74
2021/07/16 00:37:58;;;;;;;28.67;13.75;;;17.10;87.30;;;;;;5085990;28;20028;-75
2021/07/16 00:40:25;;;;;;;29.98;13.80;;;17.10;87.50;;;;;;5090650;28;20040;-76
2021/07/16 00:42:51;;;;;;;28.13;13.63;;;17.10;87.50;;;;;;5091530;28;20047;-77
2021/07/16 00:45:17;;;;;;;26.25;12.63;;;17.10;87.50;;;;;;5088854;28;20036;-77
2021/07/16 00:47:44;;;;;;;24.52;12.02;;;17.10;86.90;;;;;;5073784;28;20036;-77
2021/07/16 00:50:13;;;;;;;23.60;12.88;;;17.00;87.00;;;;;;5076742;28;20540;-79
2021/07/16 00:52:41;;;;;;;30.42;13.40;;;17.00;86.90;;;;;;5075990;28;20045;-77
2021/07/16 00:55:07;;;;;;;23.10;12.90;;;16.90;86.70;;;;;;5085136;28;20031;-78
2021/07/16 00:57:33;;;;;;;22.50;12.77;;;16.80;86.80;;;;;;5072780;28;20028;-75
2021/07/16 01:00:00;;;;;;;25.95;13.35;;;16.90;87.10;;;;;;5098052;28;20078;-75
2021/07/16 01:02:26;;;;;;;24.42;13.38;;;16.80;87.30;;;;;;5106123;28;20110;-76
2021/07/16 01:04:53;;;;;;;26.63;13.73;;;16.80;87.30;;;;;;5104419;28;20032;-75
2021/07/16 01:07:19;;;;;;;24.45;13.10;;;16.80;87.40;;;;;;5089199;28;20068;-74
2021/07/16 01:09:50;;;;;;;24.38;14.40;;;16.70;87.60;;;;;;5089444;28;20067;-74
2021/07/16 01:12:19;;;;;;;29.60;13.70;;;16.70;87.70;;;;;;5089535;28;20566;-74
2021/07/16 01:14:45;;;;;;;27.05;13.90;;;16.70;87.90;;;;;;5089051;28;20033;-75
2021/07/16 01:17:11;;;;;;;28.77;13.52;;;16.70;88.10;;;;;;5071816;28;20040;-77
2021/07/16 01:19:57;;;;;;;25.15;13.55;;;16.70;88.10;;;;;;5070090;28;20443;-75
2021/07/16 01:22:28;;;;;;;29.42;15.23;;;16.70;88.20;;;;;;5075032;28;20048;-75
2021/07/16 01:24:55;;;;;;;28.05;14.23;;;16.60;87.80;;;;;;5070130;28;20048;-76
2021/07/16 01:27:21;;;;;;;27.95;13.35;;;16.50;87.70;;;;;;5081465;28;20035;-75
2021/07/16 01:29:48;;;;;;;27.48;12.50;;;16.50;87.50;;;;;;5071575;28;20031;-76
2021/07/16 01:32:16;;;;;;;24.98;12.98;;;16.50;86.90;;;;;;5086987;28;20039;-75
2021/07/16 01:34:43;;;;;;;25.15;13.20;;;16.40;86.60;;;;;;5083617;28;20036;-75
2021/07/16 01:37:09;;;;;;;23.33;11.95;;;16.50;86.30;;;;;;5069499;28;20036;-75
2021/07/16 01:39:35;;;;;;;22.90;12.35;;;16.40;86.10;;;;;;5069844;28;20089;-76
2021/07/16 01:42:02;;;;;;;21.38;11.73;;;16.40;86.20;;;;;;5067945;28;20457;-75
2021/07/16 01:44:28;;;;;;;22.33;12.80;;;16.30;85.80;;;;;;5083985;28;20534;-75
2021/07/16 01:46:53;;;;;;;24.05;12.07;;;16.40;85.80;;;;;;5074574;28;20116;-75
2021/07/16 01:49:19;;;;;;;25.27;13.10;;;16.30;85.60;;;;;;5068127;28;20040;-75
2021/07/16 01:51:45;;;;;;;21.27;10.93;;;16.40;85.40;;;;;;5069970;28;20032;-75
2021/07/16 01:54:11;;;;;;;23.73;12.18;;;16.40;85.30;;;;;;5069080;28;20128;-77
2021/07/16 01:56:36;;;;;;;22.58;10.98;;;16.40;85.20;;;;;;5089661;28;20040;-75
2021/07/16 01:59:03;;;;;;;19.65;11.23;;;16.40;85.30;;;;;;5080886;28;20058;-75
2021/07/16 02:01:28;;;;;;;21.38;11.93;;;16.40;85.30;;;;;;5072060;28;20033;-75
2021/07/16 02:03:54;;;;;;;20.80;10.95;;;16.40;85.20;;;;;;5069601;28;20047;-75
2021/07/16 02:06:20;;;;;;;24.55;10.93;;;16.40;85.20;;;;;;5077221;28;20048;-75
2021/07/16 02:08:46;;;;;;;26.13;12.20;;;16.50;85.10;;;;;;5094295;28;20141;-74
2021/07/16 02:11:12;;;;;;;23.92;12.57;;;16.40;85.30;;;;;;5090591;28;20032;-75
2021/07/16 02:13:38;;;;;;;22.38;11.68;;;16.40;85.30;;;;;;5089649;28;20035;-75
2021/07/16 02:16:04;;;;;;;20.27;11.20;;;16.40;85.00;;;;;;5079186;28;20111;-75
2021/07/16 02:18:30;;;;;;;18.30;12.00;;;16.40;85.00;;;;;;5088409;28;20093;-77
2021/07/16 02:20:56;;;;;;;19.75;11.32;;;16.40;84.90;;;;;;5089745;28;20036;-75
2021/07/16 02:23:24;;;;;;;20.83;10.50;;;16.40;84.20;;;;;;5076805;28;20043;-74
2021/07/16 02:25:50;;;;;;;19.27;10.45;;;16.40;84.40;;;;;;5067803;28;20052;-74
2021/07/16 02:28:27;;;;;;;19.88;10.35;;;16.40;84.10;;;;;;5078062;28;20036;-76
2021/07/16 02:30:53;;;;;;;18.65;9.35;;;16.40;83.90;;;;;;5089548;28;20036;-76
2021/07/16 02:33:20;;;;;;;22.42;9.75;;;16.40;83.40;;;;;;5087745;28;20113;-76
2021/07/16 02:35:46;;;;;;;14.90;8.95;;;16.40;83.00;;;;;;5073056;28;20040;-75
2021/07/16 02:38:12;;;;;;;14.88;9.18;;;16.40;83.00;;;;;;5066755;28;20028;-77
2021/07/16 02:40:38;;;;;;;16.00;9.50;;;16.40;82.80;;;;;;5069105;28;20099;-77
2021/07/16 02:43:05;;;;;;;22.38;9.90;;;16.40;82.20;;;;;;5068948;28;20383;-76
2021/07/16 02:45:31;;;;;;;17.42;9.90;;;16.40;81.90;;;;;;5072587;28;20069;-76
2021/07/16 02:47:57;;;;;;;20.20;10.40;;;16.40;81.90;;;;;;5093293;28;20033;-76
2021/07/16 02:50:25;;;;;;;19.58;10.60;;;16.40;81.80;;;;;;5084478;28;20047;-75
2021/07/16 02:52:52;;;;;;;21.55;11.20;;;16.30;81.70;;;;;;5080787;28;20048;-76
2021/07/16 02:55:19;;;;;;;17.98;11.18;;;16.30;82.00;;;;;;5084298;28;20459;-75
2021/07/16 02:57:44;;;;;;;17.50;11.30;;;16.30;82.30;;;;;;5091925;28;20032;-77
2021/07/16 03:00:13;;;;;;;20.65;11.10;;;16.30;82.40;;;;;;5075913;28;20048;-76
2021/07/16 03:02:40;;;;;;;22.98;12.60;;;16.30;82.60;;;;;;5071413;28;20036;-79
2021/07/16 03:05:15;;;;;;;19.70;11.82;;;16.20;82.60;;;;;;5072033;28;20094;-76
2021/07/16 03:07:42;;;;;;;22.52;12.60;;;16.20;82.80;;;;;;5079540;28;20086;-76
2021/07/16 03:10:09;;;;;;;22.65;12.43;;;16.20;82.70;;;;;;5092584;28;20039;-76
2021/07/16 03:12:39;;;;;;;23.27;12.57;;;16.20;82.80;;;;;;5078877;28;20036;-75
2021/07/16 03:15:07;;;;;;;22.42;11.65;;;16.20;82.70;;;;;;5072166;28;20044;-76
2021/07/16 03:17:33;;;;;;;21.77;12.65;;;16.20;82.70;;;;;;5071503;28;20112;-76
2021/07/16 03:19:58;;;;;;;22.98;13.52;;;16.20;82.50;;;;;;5072357;28;20273;-77
2021/07/16 03:22:24;;;;;;;22.35;12.50;;;16.20;82.40;;;;;;5072662;28;20049;-77
2021/07/16 03:24:50;;;;;;;19.80;13.10;;;16.20;82.50;;;;;;5082397;28;20353;-75
2021/07/16 03:27:15;;;;;;;19.38;11.43;;;16.20;82.10;;;;;;5091060;28;20040;-76
2021/07/16 03:29:41;;;;;;;18.10;11.93;;;16.20;82.00;;;;;;5092515;28;20048;-76
2021/07/16 03:32:07;;;;;;;21.02;11.93;;;16.20;81.70;;;;;;5073607;28;20394;-75
2021/07/16 03:34:33;;;;;;;22.13;11.45;;;16.10;81.40;;;;;;5080015;28;20366;-77
2021/07/16 03:36:59;;;;;;;24.63;10.52;;;16.20;81.30;;;;;;5091328;28;20513;-76
2021/07/16 03:39:24;;;;;;;19.50;10.93;;;16.20;80.80;;;;;;5092173;28;20471;-76
2021/07/16 03:41:50;;;;;;;23.33;10.10;;;16.20;80.50;;;;;;5091264;28;20111;-76
2021/07/16 03:44:16;;;;;;;19.10;10.05;;;16.20;80.20;;;;;;5091028;28;20039;-76
2021/07/16 03:46:41;;;;;;;19.35;10.32;;;16.20;79.80;;;;;;5092357;28;20036;-76
2021/07/16 03:49:07;;;;;;;17.60;10.00;;;16.20;79.80;;;;;;5090693;28;20055;-76
2021/07/16 03:51:33;;;;;;;16.08;9.68;;;16.20;79.70;;;;;;5092684;28;20036;-75
2021/07/16 03:53:59;;;;;;;22.98;11.48;;;16.20;79.70;;;;;;5083667;28;20036;-76
2021/07/16 03:56:24;;;;;;;19.30;10.35;;;16.20;79.90;;;;;;5079972;28;20387;-76
2021/07/16 03:58:50;;;;;;;19.55;11.20;;;16.10;80.00;;;;;;5070451;28;20094;-77
2021/07/16 04:01:16;;;;;;;20.75;11.20;;;16.10;79.70;;;;;;5081248;28;20382;-77
2021/07/16 04:03:41;;;;;;;16.55;9.80;;;16.20;79.90;;;;;;5093278;28;20131;-81
2021/07/16 04:06:09;;;;;;;18.08;9.50;;;16.10;79.80;;;;;;5090962;28;20035;-78
2021/07/16 04:08:36;;;;;;;20.63;9.52;;;16.10;79.70;;;;;;5070372;28;20044;-76
2021/07/16 04:11:02;;;;;;;23.80;11.18;;;16.10;79.60;;;;;;5069931;28;20627;-76
2021/07/16 04:13:28;;;;;;;18.42;9.60;;;16.10;79.10;;;;;;5070425;28;20028;-77
2021/07/16 04:15:54;;;;;;;19.88;9.30;;;16.10;79.10;;;;;;5071382;28;20498;-76
2021/07/16 04:18:20;;;;;;;15.00;9.20;;;16.10;78.30;;;;;;5069268;28;20032;-76
2021/07/16 04:20:45;;;;;;;20.42;8.73;;;16.10;78.20;;;;;;5071701;28;20493;-78
2021/07/16 04:23:11;;;;;;;18.80;8.52;;;16.10;78.00;;;;;;5069456;28;20037;-77
2021/07/16 04:25:38;;;;;;;17.13;8.40;;;16.10;77.90;;;;;;5069880;28;20445;-75
2021/07/16 04:28:04;;;;;;;15.50;8.57;;;16.10;77.80;;;;;;5069743;28;20037;-76
2021/07/16 04:30:31;;;;;;;16.05;8.18;;;16.10;77.20;;;;;;5085191;28;20036;-75
2021/07/16 04:33:02;;;;;;;15.98;7.85;;;16.10;77.00;;;;;;5069865;28;20434;-76
2021/07/16 04:35:29;;;;;;;16.20;7.57;;;16.10;76.80;;;;;;5084034;28;20062;-75
2021/07/16 04:37:56;;;;;;;20.75;8.38;;;16.10;76.60;;;;;;5089963;28;20071;-76
2021/07/16 04:40:23;;;;;;;17.30;7.15;;;16.10;76.10;;;;;;5088097;28;20051;-74
2021/07/16 04:42:50;;;;;;;17.25;7.70;;;16.10;76.00;;;;;;5091419;28;20028;-79
2021/07/16 04:45:16;;;;;;;18.92;8.00;;;16.10;75.80;;;;;;5087484;28;20031;-76
2021/07/16 04:47:42;;;;;;;16.95;6.63;;;16.10;75.80;;;;;;5069723;28;20044;-76
2021/07/16 04:50:09;;;;;;;16.05;7.28;;;16.10;75.30;;;;;;5068609;28;20040;-75
2021/07/16 04:52:40;;;;;;;16.35;7.00;;;16.10;75.10;;;;;;5089678;28;20538;-75
2021/07/16 04:55:06;;;;;;;13.52;6.60;;;16.10;75.10;;;;;;5068678;28;20036;-75
2021/07/16 04:57:32;;;;;;;15.25;6.68;;;16.10;75.00;;;;;;5070926;28;20086;-76
2021/07/16 04:59:58;;;;;;;18.42;7.53;;;16.20;74.70;;;;;;5087396;28;20079;-78
2021/07/16 05:02:23;;;;;;;16.33;6.82;;;16.20;74.40;;;;;;5079643;28;20064;-75
2021/07/16 05:04:49;;;;;;;14.27;6.40;;;16.30;74.10;;;;;;5089503;28;20115;-75
2021/07/16 05:07:15;;;;;;;14.98;7.03;;;16.30;74.60;;;;;;5089117;28;20440;-75
2021/07/16 05:09:41;;;;;;;19.77;6.40;;;16.30;74.40;;;;;;5089002;28;20046;-75
2021/07/16 05:12:07;;;;;;;20.63;7.65;;;16.30;74.50;;;;;;5088849;28;20028;-79
2021/07/16 05:14:33;;;;;;;15.35;6.95;;;16.30;75.00;;;;;;5090726;28;20474;-77
2021/07/16 05:16:59;;;;;;;18.45;7.18;;;16.30;75.20;;;;;;5073132;28;20119;-76
2021/07/16 05:19:25;;;;;;;15.32;6.90;;;16.30;75.60;;;;;;5068933;28;20128;-76
2021/07/16 05:21:50;;;;;;;19.48;7.85;;;16.30;75.90;;;;;;5076429;28;20115;-76
2021/07/16 05:24:16;;;;;;;17.98;7.40;;;16.30;76.20;;;;;;5089751;28;20028;-76
2021/07/16 05:26:42;;;;;;;18.08;7.55;;;16.30;76.20;;;;;;5078736;28;20071;-79
2021/07/16 05:29:07;;;;;;;17.25;8.38;;;16.30;76.50;;;;;;5070284;28;20487;-74
2021/07/16 05:31:33;;;;;;;20.73;8.07;;;16.30;76.60;;;;;;5081477;28;20142;-75
2021/07/16 05:33:59;;;;;;;19.60;8.00;;;16.30;76.50;;;;;;5086261;28;20259;-75
2021/07/16 05:36:24;;;;;;;18.50;8.20;;;16.30;76.40;;;;;;5088035;28;20024;-75
2021/07/16 05:38:50;;;;;;;20.27;7.07;;;16.30;76.40;;;;;;5090204;28;20067;-76
2021/07/16 05:41:16;;;;;;;23.75;8.23;;;16.30;76.70;;;;;;5089671;28;20498;-72
2021/07/16 05:43:42;;;;;;;20.10;8.10;;;16.30;76.60;;;;;;5088963;28;20036;-73
2021/07/16 05:46:08;;;;;;;20.95;8.15;;;16.30;76.60;;;;;;5086834;28;20470;-72
2021/07/16 05:48:34;;;;;;;24.23;8.80;;;16.40;76.80;;;;;;5090296;28;20030;-73
2021/07/16 05:51:01;;;;;;;21.15;8.63;;;16.30;76.80;;;;;;5088474;28;20082;-73
2021/07/16 05:53:27;;;;;;;18.58;7.57;;;16.20;77.10;;;;;;5081234;28;20085;-72
2021/07/16 05:55:52;;;;;;;19.63;8.25;;;16.10;77.20;;;;;;5089966;28;20074;-74
2021/07/16 05:58:18;;;;;;;17.63;7.80;;;16.10;77.20;;;;;;5070837;28;20028;-73
2021/07/16 06:00:44;;;;;;;16.38;7.68;;;16.20;77.00;;;;;;5074916;28;20040;-73
2021/07/16 06:03:10;;;;;;;17.65;8.55;;;16.20;76.90;;;;;;5089357;28;20047;-73
2021/07/16 06:05:36;;;;;;;15.23;7.15;;;16.30;76.70;;;;;;5089749;28;20032;-72
2021/07/16 06:08:03;;;;;;;26.15;8.40;;;16.40;77.00;;;;;;5086797;28;20142;-74
2021/07/16 06:10:29;;;;;;;18.92;7.32;;;16.40;76.10;;;;;;5088385;28;20036;-72
2021/07/16 06:12:56;;;;;;;17.20;6.63;;;16.40;75.70;;;;;;5088090;28;20030;-73
2021/07/16 06:15:22;;;;;;;16.63;6.45;;;16.40;75.60;;;;;;5085225;28;20093;-74
2021/07/16 06:17:48;;;;;;;18.45;6.85;;;16.40;74.80;;;;;;5068076;28;20037;-72
2021/07/16 06:20:15;;;;;;;20.85;6.78;;;16.50;74.90;;;;;;5085195;28;20104;-73
2021/07/16 06:22:41;;;;;;;20.10;6.65;;;16.60;74.80;;;;;;5082926;28;20025;-72
2021/07/16 06:25:08;;;;;;;20.52;6.40;;;16.60;74.50;;;;;;5068673;28;20475;-72
2021/07/16 06:27:33;;;;;;;20.73;6.72;;;16.60;74.60;;;;;;5069501;28;20471;-73
2021/07/16 06:29:59;;;;;;;18.25;6.28;;;16.60;74.10;;;;;;5074441;28;20042;-73
2021/07/16 06:32:25;;;;;;;14.98;6.82;;;16.60;74.10;;;;;;5069443;28;20527;-74
2021/07/16 06:34:51;;;;;;;15.70;6.00;;;16.70;74.30;;;;;;5070146;28;20460;-73
2021/07/16 06:37:16;;;;;;;14.85;6.22;;;16.60;74.00;;;;;;5067196;28;20051;-73
2021/07/16 06:39:42;;;;;;;14.20;5.97;;;16.70;74.10;;;;;;5068999;28;20040;-73
2021/07/16 06:42:08;;;;;;;18.17;6.63;;;16.80;74.20;;;;;;5082555;28;20024;-72
2021/07/16 06:44:34;;;;;;;13.80;5.75;;;16.80;73.90;;;;;;5088186;28;20047;-72
2021/07/16 06:47:00;;;;;;;16.00;6.05;;;16.80;74.20;;;;;;5087760;28;20036;-73
2021/07/16 06:49:29;;;;;;;16.40;6.30;;;16.80;74.10;;;;;;5087682;28;20036;-72
2021/07/16 06:51:57;;;;;;;17.20;6.55;;;16.80;74.00;;;;;;5081721;28;20029;-73
2021/07/16 06:54:24;;;;;;;17.45;6.18;;;16.80;74.70;;;;;;5068586;28;20444;-73
2021/07/16 06:56:49;;;;;;;19.25;6.88;;;16.80;74.00;;;;;;5068374;28;20036;-74
2021/07/16 06:59:15;;;;;;;15.02;5.80;;;17.00;73.80;;;;;;5080131;28;20044;-73
2021/07/16 07:01:41;;;;;;;19.85;6.25;;;16.90;74.00;;;;;;5089286;28;20556;-73
2021/07/16 07:04:07;;;;;;;16.08;5.65;;;16.90;73.60;;;;;;5086314;28;20490;-74
2021/07/16 07:06:33;;;;;;;15.77;5.95;;;16.90;73.00;;;;;;5089550;28;20110;-74
2021/07/16 07:08:58;;;;;;;16.95;6.25;;;17.00;73.40;;;;;;5089135;28;20036;-74
2021/07/16 07:11:24;;;;;;;19.08;6.00;;;17.00;73.20;;;;;;5087512;28;20062;-74
2021/07/16 07:13:50;;;;;;;20.23;6.03;;;17.10;72.70;;;;;;5086645;28;20043;-74
2021/07/16 07:16:16;;;;;;;19.67;5.75;;;17.10;72.70;;;;;;5076720;28;20036;-73
2021/07/16 07:18:43;;;;;;;23.77;6.63;;;17.20;72.60;;;;;;5068866;28;20112;-73
2021/07/16 07:21:09;;;;;;;16.48;5.82;;;17.30;72.50;;;;;;5066898;28;20061;-72
2021/07/16 07:23:34;;;;;;;16.98;6.18;;;17.40;71.70;;;;;;5073081;28;20067;-73
2021/07/16 07:26:00;;;;;;;14.40;5.13;;;17.60;72.00;;;;;;5070912;28;20055;-72
2021/07/16 07:28:26;;;;;;;17.27;6.13;;;17.60;70.90;;;;;;5066755;28;20032;-74
2021/07/16 07:30:52;;;;;;;16.92;5.20;;;17.80;70.60;;;;;;5073971;28;20487;-73
2021/07/16 07:33:17;;;;;;;17.33;5.60;;;17.90;70.60;;;;;;5090453;28;20047;-72
2021/07/16 07:35:43;;;;;;;16.35;5.25;;;17.90;70.30;;;;;;5079666;28;20036;-73
2021/07/16 07:38:09;;;;;;;16.27;5.60;;;17.90;71.00;;;;;;5090642;28;20034;-71
2021/07/16 07:40:34;;;;;;;16.70;5.25;;;17.90;70.20;;;;;;5092586;28;20441;-72
2021/07/16 07:43:02;;;;;;;20.25;5.95;;;17.90;71.30;;;;;;5092410;28;20090;-75
2021/07/16 07:45:27;;;;;;;24.25;5.35;;;18.00;71.10;;;;;;5090505;28;20074;-74
2021/07/16 07:47:53;;;;;;;17.85;5.40;;;18.10;70.20;;;;;;5091031;28;20044;-77
2021/07/16 07:50:20;;;;;;;16.83;5.78;;;18.10;70.20;;;;;;5090303;28;20474;-72
2021/07/16 07:52:47;;;;;;;18.40;5.22;;;18.10;70.00;;;;;;5091080;28;20520;-73
2021/07/16 07:55:14;;;;;;;21.55;5.65;;;18.30;69.60;;;;;;5069868;28;20037;-73
2021/07/16 07:57:40;;;;;;;16.92;4.70;;;18.30;68.40;;;;;;5071894;28;20070;-73
2021/07/16 08:00:09;;;;;;;19.10;5.47;;;18.20;68.90;;;;;;5070038;28;20036;-72
2021/07/16 08:02:34;;;;;;;17.08;4.78;;;18.30;68.10;;;;;;5091786;28;20484;-74
2021/07/16 08:05:00;;;;;;;18.70;5.13;;;18.10;67.90;;;;;;5090606;28;20106;-72
2021/07/16 08:07:26;;;;;;;16.15;4.82;;;18.20;68.50;;;;;;5091654;28;20046;-72
2021/07/16 08:09:52;;;;;;;19.67;5.10;;;18.20;68.00;;;;;;5090760;28;20044;-74
2021/07/16 08:12:17;;;;;;;24.30;5.93;;;18.40;67.20;;;;;;5091458;28;20411;-72
2021/07/16 08:14:43;;;;;;;15.95;3.85;;;18.40;67.00;;;;;;5091664;28;20024;-73
2021/07/16 08:17:09;;;;;;;19.33;4.95;;;18.60;66.90;;;;;;5091057;28;20555;-73
2021/07/16 08:19:35;;;;;;;15.65;4.93;;;18.60;67.90;;;;;;5089288;28;20040;-74
2021/07/16 08:22:01;;;;;;;20.00;4.85;;;18.80;67.60;;;;;;5089985;28;20029;-73
2021/07/16 08:24:27;;;;;;;16.55;4.55;;;18.70;66.20;;;;;;5083783;28;20158;-74
2021/07/16 08:26:52;;;;;;;16.25;4.47;;;18.50;66.80;;;;;;5090371;28;20032;-72
2021/07/16 08:29:18;;;;;;;18.15;5.03;;;18.50;67.30;;;;;;5090787;28;20028;-72
2021/07/16 08:31:44;;;;;;;17.67;4.82;;;18.70;67.40;;;;;;5076979;28;20106;-73
2021/07/16 08:34:10;;;;;;;16.42;5.13;;;18.80;66.50;;;;;;5071816;28;20036;-73
2021/07/16 08:36:36;;;;;;;16.83;4.90;;;19.10;66.50;;;;;;5090010;28;20032;-72
2021/07/16 08:39:03;;;;;;;17.08;4.93;;;19.30;66.20;;;;;;5090117;28;20036;-75
2021/07/16 08:41:29;;;;;;;14.05;4.50;;;19.50;65.00;;;;;;5090464;28;20067;-73
2021/07/16 08:43:54;;;;;;;18.50;5.45;;;19.60;63.30;;;;;;5089568;28;20064;-74
2021/07/16 08:46:21;;;;;;;21.77;5.22;;;19.70;63.10;;;;;;5078437;28;20353;-73
2021/07/16 08:48:50;;;;;;;15.70;4.97;;;19.60;62.80;;;;;;5069527;28;20056;-73
2021/07/16 08:51:20;;;;;;;21.80;5.43;;;19.30;62.30;;;;;;5068766;28;20078;-73
2021/07/16 08:53:50;;;;;;;20.08;5.07;;;19.20;64.10;;;;;;5076103;28;20047;-73
2021/07/16 08:56:16;;;;;;;17.70;4.97;;;19.50;63.50;;;;;;5088874;28;20028;-73
2021/07/16 08:58:42;;;;;;;16.08;4.90;;;19.80;64.10;;;;;;5091051;28;20121;-74
2021/07/16 09:01:09;;;;;;;19.33;4.93;;;19.80;62.90;;;;;;5081375;28;20063;-73
2021/07/16 09:03:37;;;;;;;18.45;5.10;;;19.70;63.40;;;;;;5072624;28;20077;-73
2021/07/16 09:06:04;;;;;;;16.88;4.63;;;19.60;64.20;;;;;;5088466;28;20433;-73
2021/07/16 09:08:30;;;;;;;18.63;4.93;;;19.40;64.30;;;;;;5089485;28;20081;-73
2021/07/16 09:11:00;;;;;;;20.15;5.63;;;19.50;64.20;;;;;;5090983;28;20040;-73
2021/07/16 09:13:27;;;;;;;15.55;5.20;;;19.70;65.30;;;;;;5088768;28;20032;-73
2021/07/16 09:16:02;;;;;;;18.95;5.50;;;19.50;63.40;;;;;;5081008;28;20479;-72
2021/07/16 09:18:32;;;;;;;17.40;5.15;;;19.50;64.40;;;;;;5070118;28;20036;-73
2021/07/16 09:21:01;;;;;;;15.23;4.93;;;19.50;64.50;;;;;;5070279;28;20040;-78
2021/07/16 09:23:33;;;;;;;15.82;4.68;;;19.70;64.00;;;;;;5073132;28;20081;-73
2021/07/16 09:26:12;;;;;;;17.10;5.30;;;19.40;63.60;;;;;;5080756;28;20051;-74
2021/07/16 09:28:43;;;;;;;16.98;5.05;;;19.40;64.80;;;;;;5068842;28;20074;-74
2021/07/16 09:31:13;;;;;;;20.55;5.00;;;19.40;64.60;;;;;;5077099;28;20105;-72
2021/07/16 09:33:51;;;;;;;16.88;5.38;;;19.30;64.70;;;;;;5090664;28;20040;-73
2021/07/16 09:36:27;;;;;;;11.70;4.47;;;19.20;65.50;;;;;;5087474;28;20032;-72
2021/07/16 09:38:57;;;;;;;19.73;5.43;;;19.10;66.10;;;;;;5088810;28;20052;-72
2021/07/16 09:41:23;;;;;;;19.35;5.20;;;19.00;65.90;;;;;;5089193;28;20044;-73
2021/07/16 09:43:57;;;;;;;17.00;5.20;;;18.90;65.70;;;;;;5090291;28;20432;-73
2021/07/16 09:46:22;;;;;;;;;;;19.00;65.30;;;;;;5089817;28;20062;-72
2021/07/16 09:48:48;;;;;;;17.10;5.20;;;19.10;64.80;;;;;;5089145;28;19919;-73
2021/07/16 09:51:27;;;;;;;16.98;4.93;;;19.20;64.70;;;;;;5089482;28;20076;-73
2021/07/16 09:53:55;;;;;;;19.45;6.05;;;19.40;64.80;;;;;;5074494;28;20033;-73
2021/07/16 09:56:24;;;;;;;16.45;5.00;;;19.30;64.70;;;;;;5069147;28;20036;-72
2021/07/16 09:59:00;;;;;;;16.42;5.40;;;19.30;64.70;;;;;;5075867;28;20276;-73
2021/07/16 10:01:30;;;;;;;16.38;5.63;;;19.10;66.40;;;;;;5076587;28;20186;-73
2021/07/16 10:04:00;;;;;;;19.13;4.95;;;19.50;66.10;;;;;;5068174;28;20109;-74
2021/07/16 10:06:28;;;;;;;15.70;5.60;;;19.60;65.20;;;;;;5067943;28;20037;-73
2021/07/16 10:08:57;;;;;;;18.73;5.35;;;19.60;65.80;;;;;;5069952;28;20162;-75
2021/07/16 10:11:25;;;;;;;19.05;5.90;;;19.80;64.40;;;;;;5086181;28;20028;-73
2021/07/16 10:13:53;;;;;;;13.80;4.80;;;20.20;63.20;;;;;;5089993;28;20036;-73
2021/07/16 10:16:19;;;;;;;17.00;5.00;;;20.60;61.60;;;;;;5076741;28;20024;-72
2021/07/16 10:18:45;;;;;;;18.55;5.43;;;20.30;61.80;;;;;;5069490;28;20029;-73
2021/07/16 10:21:11;;;;;;;18.05;5.50;;;20.20;63.10;;;;;;5066392;28;20058;-73
2021/07/16 10:23:40;;;;;;;16.77;5.22;;;20.30;62.60;;;;;;5075155;28;20028;-72
2021/07/16 10:26:12;;;;;;;19.95;5.30;;;20.80;62.80;;;;;;5087099;28;20040;-73
2021/07/16 10:28:42;;;;;;;17.20;4.72;;;21.20;60.00;;;;;;5088134;28;20082;-73
2021/07/16 10:31:31;;;;;;;17.77;5.70;;;21.70;58.80;;;;;;5079408;28;20021;-74
2021/07/16 10:34:17;;;;;;;19.83;5.35;;;21.20;58.90;;;;;;5086986;28;20499;-72
2021/07/16 10:36:45;;;;;;;19.13;5.72;;;21.10;60.40;;;;;;5051477;28;20090;-73
2021/07/16 10:39:32;;;;;;;17.08;5.03;;;21.00;59.50;;;;;;5068436;28;20032;-74
2021/07/16 10:41:58;;;;;;;16.80;4.65;;;20.80;59.50;;;;;;5069044;28;20070;-72
2021/07/16 10:44:47;;;;;;;18.33;5.10;;;20.70;60.10;;;;;;5066618;28;20574;-73
2021/07/16 10:47:36;;;;;;;15.63;5.80;;;20.70;60.80;;;;;;5086609;28;20087;-75
2021/07/16 10:50:06;;;;;;;18.35;5.78;;;20.50;59.80;;;;;;5088846;28;20521;-73
2021/07/16 10:52:43;;;;;;;15.75;5.75;;;20.30;60.80;;;;;;5089627;28;20513;-73
2021/07/16 10:55:10;;;;;;;20.27;5.25;;;20.30;61.60;;;;;;5066202;28;20162;-73
2021/07/16 10:57:43;;;;;;;20.77;5.90;;;20.10;62.50;;;;;;5069020;28;20404;-73
2021/07/16 11:00:13;;;;;;;13.18;5.70;;;20.20;62.90;;;;;;5085905;28;20131;-72
2021/07/16 11:02:47;;;;;;;22.20;5.88;;;20.30;63.60;;;;;;5069220;28;20045;-74
2021/07/16 11:05:31;;;;;;;18.77;5.57;;;20.20;62.20;;;;;;5068024;28;20036;-73
2021/07/16 11:07:57;;;;;;;15.15;5.65;;;20.50;61.70;;;;;;5072219;28;20037;-73
2021/07/16 11:10:50;;;;;;;18.35;6.32;;;20.50;61.50;;;;;;5070628;28;20047;-74
2021/07/16 11:13:46;;;;;;;19.42;5.88;;;20.70;60.00;;;;;;5071850;28;20036;-73
2021/07/16 11:16:15;;;;;;;21.42;6.15;;;20.60;60.20;;;;;;5080821;28;20031;-72
2021/07/16 11:19:20;;;;;;;17.30;5.88;;;20.50;61.40;;;;;;5091588;28;20040;-76
2021/07/16 11:21:46;;;;;;;16.73;5.90;;;20.10;63.10;;;;;;5079301;28;20032;-72
2021/07/16 11:24:18;;;;;;;18.10;6.00;;;20.30;64.40;;;;;;5084261;28;20024;-72
2021/07/16 11:26:54;;;;;;;18.77;5.75;;;20.70;63.00;;;;;;5086991;28;20047;-72
2021/07/16 11:29:23;;;;;;;15.98;5.85;;;20.70;61.90;;;;;;5070404;28;20044;-73
2021/07/16 11:32:01;;;;;;;17.55;5.75;;;20.60;62.40;;;;;;5086768;28;20036;-73
2021/07/16 11:34:27;;;;;;;20.92;5.72;;;20.80;61.90;;;;;;5085344;28;20102;-73
2021/07/16 11:36:54;;;;;;;16.60;6.07;;;20.90;62.40;;;;;;5072591;28;20456;-72
2021/07/16 11:39:33;;;;;;;16.65;5.97;;;21.30;59.90;;;;;;5069968;28;20052;-72
2021/07/16 11:42:00;;;;;;;16.30;5.97;;;22.00;60.20;;;;;;5070873;28;20072;-73
2021/07/16 11:44:30;;;;;;;17.15;5.70;;;22.60;59.80;;;;;;5071639;28;20561;-73
2021/07/16 11:46:57;;;;;;;18.88;5.80;;;22.00;58.30;;;;;;5087777;28;20028;-73
2021/07/16 11:49:27;;;;;;;19.83;5.95;;;21.60;58.50;;;;;;5090416;28;20024;-73
2021/07/16 11:52:01;;;;;;;17.08;5.72;;;21.10;60.50;;;;;;5092642;28;20032;-72
2021/07/16 11:54:31;;;;;;;18.55;5.78;;;21.10;60.10;;;;;;5083334;28;20036;-73
2021/07/16 11:56:58;;;;;;;16.55;5.72;;;21.00;60.60;;;;;;5092420;28;20077;-73
2021/07/16 11:59:26;;;;;;;17.52;6.20;;;20.70;61.40;;;;;;5080560;28;20102;-73
2021/07/16 12:02:04;;;;;;;16.73;6.25;;;20.70;62.30;;;;;;5092024;28;20043;-72
2021/07/16 12:04:29;;;;;;;19.38;6.30;;;20.60;61.20;;;;;;5091294;28;20033;-72
2021/07/16 12:06:55;;;;;;;17.35;6.30;;;20.40;61.80;;;;;;5092086;28;20032;-71
2021/07/16 12:09:38;;;;;;;15.23;5.55;;;20.80;63.50;;;;;;5091452;28;20301;-73
2021/07/16 12:12:23;;;;;;;15.13;5.35;;;21.30;59.70;;;;;;5090653;28;20368;-72
2021/07/16 12:14:59;;;;;;;14.70;5.28;;;21.70;58.40;;;;;;5092037;28;20040;-77
2021/07/16 12:17:34;;;;;;;13.85;5.57;;;21.20;59.20;;;;;;5070675;28;20040;-72
2021/07/16 12:20:01;;;;;;;17.25;6.00;;;21.50;59.70;;;;;;5071617;28;20053;-73
2021/07/16 12:22:33;;;;;;;16.65;5.68;;;22.00;58.60;;;;;;5068867;28;20122;-73
2021/07/16 12:25:00;;;;;;;18.38;5.70;;;21.40;59.30;;;;;;5088743;28;20509;-77
2021/07/16 12:27:26;;;;;;;18.35;6.10;;;21.10;61.40;;;;;;5091030;28;20032;-74
2021/07/16 12:29:58;;;;;;;20.20;6.90;;;21.60;60.80;;;;;;5091612;28;20398;-73
2021/07/16 12:32:37;;;;;;;16.17;5.65;;;21.80;59.30;;;;;;5070685;28;20055;-72
2021/07/16 12:35:22;;;;;;;17.58;5.95;;;21.80;59.90;;;;;;5073335;28;20154;-73
2021/07/16 12:37:50;;;;;;;16.00;5.88;;;22.10;59.50;;;;;;5071101;28;20040;-73